sensor_id;sensor_type;location;lat;lon;timestamp;noise_LAeq;noise_LA_min;noise_LA_max;noise_LA01;noise_LA95
73663;Laerm;61956;52.540;13.382;2022-12-07T00:02:38;43.53;39.14;54.55;;
73663;Laerm;61956;52.540;13.382;2022-12-07T00:05:08;43.22;38.75;51.53;;
73663;Laerm;61956;52.540;13.382;2022-12-07T00:07:40;43.75;38.80;55.78;;
73663;Laerm;61956;52.540;13.382;2022-12-07T00:10:09;41.61;38.86;50.42;;
73663;Laerm;61956;52.540;13.382;2022-12-07T00:12:38;44.07;39.05;55.64;;
73663;Laerm;61956;52.540;13.382;2022-12-07T00:15:09;44.66;39.29;53.08;;
73663;Laerm;61956;52.540;13.382;2022-12-07T00:17:38;45.05;39.85;55.08;;
73663;Laerm;61956;52.540;13.382;2022-12-07T00:20:09;44.17;39.58;56.99;;
73663;Laerm;61956;52.540;13.382;2022-12-07T00:22:41;42.23;38.53;54.56;;
73663;Laerm;61956;52.540;13.382;2022-12-07T00:25:10;42.91;38.96;58.51;;
73663;Laerm;61956;52.540;13.382;2022-12-07T00:27:39;41.03;37.89;50.98;;
73663;Laerm;61956;52.540;13.382;2022-12-07T00:30:09;41.14;37.71;49.42;;
73663;Laerm;61956;52.540;13.382;2022-12-07T00:32:39;40.77;37.81;45.20;;
73663;Laerm;61956;52.540;13.382;2022-12-07T00:35:08;41.49;38.16;53.20;;
73663;Laerm;61956;52.540;13.382;2022-12-07T00:37:37;41.56;39.04;45.72;;
73663;Laerm;61956;52.540;13.382;2022-12-07T00:40:11;42.99;38.07;53.38;;
73663;Laerm;61956;52.540;13.382;2022-12-07T00:42:40;42.07;37.72;51.06;;
73663;Laerm;61956;52.540;13.382;2022-12-07T00:45:09;41.19;38.28;47.72;;
73663;Laerm;61956;52.540;13.382;2022-12-07T00:47:39;41.88;37.79;50.45;;
73663;Laerm;61956;52.540;13.382;2022-12-07T00:50:08;42.22;38.18;55.07;;
73663;Laerm;61956;52.540;13.382;2022-12-07T00:52:37;43.03;38.49;50.12;;
73663;Laerm;61956;52.540;13.382;2022-12-07T00:55:09;44.42;39.92;53.65;;
73663;Laerm;61956;52.540;13.382;2022-12-07T00:57:39;44.60;40.74;52.58;;
73663;Laerm;61956;52.540;13.382;2022-12-07T01:00:09;42.95;38.74;46.10;;
73663;Laerm;61956;52.540;13.382;2022-12-07T01:02:38;42.02;39.05;52.43;;
73663;Laerm;61956;52.540;13.382;2022-12-07T01:05:08;41.83;38.42;49.18;;
73663;Laerm;61956;52.540;13.382;2022-12-07T01:07:37;42.91;38.61;54.93;;
73663;Laerm;61956;52.540;13.382;2022-12-07T01:10:10;40.76;37.61;45.33;;
73663;Laerm;61956;52.540;13.382;2022-12-07T01:12:40;42.31;38.45;52.73;;
73663;Laerm;61956;52.540;13.382;2022-12-07T01:15:10;41.48;38.24;49.93;;
73663;Laerm;61956;52.540;13.382;2022-12-07T01:17:39;41.05;37.71;48.34;;
73663;Laerm;61956;52.540;13.382;2022-12-07T01:20:10;43.74;37.67;60.89;;
73663;Laerm;61956;52.540;13.382;2022-12-07T01:22:41;41.94;38.63;48.38;;
73663;Laerm;61956;52.540;13.382;2022-12-07T01:25:13;40.97;37.68;43.74;;
73663;Laerm;61956;52.540;13.382;2022-12-07T01:30:13;42.77;39.09;52.13;;
73663;Laerm;61956;52.540;13.382;2022-12-07T01:32:42;42.18;38.63;50.79;;
73663;Laerm;61956;52.540;13.382;2022-12-07T01:35:11;41.48;37.74;50.75;;
73663;Laerm;61956;52.540;13.382;2022-12-07T01:37:40;41.41;37.83;50.43;;
73663;Laerm;61956;52.540;13.382;2022-12-07T01:40:13;40.96;38.04;45.12;;
73663;Laerm;61956;52.540;13.382;2022-12-07T01:42:42;41.16;37.59;52.40;;
73663;Laerm;61956;52.540;13.382;2022-12-07T01:45:43;41.37;37.96;52.04;;
73663;Laerm;61956;52.540;13.382;2022-12-07T01:48:17;41.72;38.35;48.53;;
73663;Laerm;61956;52.540;13.382;2022-12-07T01:50:51;41.92;39.27;46.92;;
73663;Laerm;61956;52.540;13.382;2022-12-07T01:53:26;42.41;37.39;54.55;;
73663;Laerm;61956;52.540;13.382;2022-12-07T01:56:00;40.48;37.70;49.54;;
73663;Laerm;61956;52.540;13.382;2022-12-07T01:58:30;41.15;37.84;46.60;;
73663;Laerm;61956;52.540;13.382;2022-12-07T02:00:59;40.39;37.36;49.01;;
73663;Laerm;61956;52.540;13.382;2022-12-07T02:03:34;40.53;37.55;45.56;;
73663;Laerm;61956;52.540;13.382;2022-12-07T02:06:06;41.14;37.69;53.24;;
73663;Laerm;61956;52.540;13.382;2022-12-07T02:08:37;40.52;37.62;44.86;;
73663;Laerm;61956;52.540;13.382;2022-12-07T02:11:10;42.47;38.62;50.42;;
73663;Laerm;61956;52.540;13.382;2022-12-07T02:13:42;41.20;37.35;54.72;;
73663;Laerm;61956;52.540;13.382;2022-12-07T02:16:27;40.74;37.91;49.08;;
73663;Laerm;61956;52.540;13.382;2022-12-07T02:19:31;41.63;37.95;53.93;;
73663;Laerm;61956;52.540;13.382;2022-12-07T02:22:23;40.78;37.25;49.56;;
73663;Laerm;61956;52.540;13.382;2022-12-07T02:25:09;40.06;37.53;43.37;;
73663;Laerm;61956;52.540;13.382;2022-12-07T02:27:54;41.40;37.88;51.93;;
73663;Laerm;61956;52.540;13.382;2022-12-07T02:30:33;41.37;38.21;51.04;;
73663;Laerm;61956;52.540;13.382;2022-12-07T02:33:10;46.75;38.01;66.96;;
73663;Laerm;61956;52.540;13.382;2022-12-07T02:35:50;40.67;38.05;46.84;;
73663;Laerm;61956;52.540;13.382;2022-12-07T02:38:28;40.64;38.38;43.73;;
73663;Laerm;61956;52.540;13.382;2022-12-07T02:41:05;40.17;37.68;42.53;;
73663;Laerm;61956;52.540;13.382;2022-12-07T02:43:43;41.88;38.56;56.13;;
73663;Laerm;61956;52.540;13.382;2022-12-07T02:46:22;41.10;38.27;44.52;;
73663;Laerm;61956;52.540;13.382;2022-12-07T02:48:54;42.71;38.90;52.37;;
73663;Laerm;61956;52.540;13.382;2022-12-07T02:51:29;42.06;38.62;51.72;;
73663;Laerm;61956;52.540;13.382;2022-12-07T02:53:59;40.78;37.84;47.22;;
73663;Laerm;61956;52.540;13.382;2022-12-07T02:56:40;40.51;37.26;47.16;;
73663;Laerm;61956;52.540;13.382;2022-12-07T02:59:19;41.04;37.99;48.27;;
73663;Laerm;61956;52.540;13.382;2022-12-07T03:02:12;41.95;38.53;53.85;;
73663;Laerm;61956;52.540;13.382;2022-12-07T03:04:59;40.68;37.91;49.48;;
73663;Laerm;61956;52.540;13.382;2022-12-07T03:07:41;40.59;37.25;44.19;;
73663;Laerm;61956;52.540;13.382;2022-12-07T03:10:22;41.98;38.44;51.38;;
73663;Laerm;61956;52.540;13.382;2022-12-07T03:13:04;42.61;38.70;50.82;;
73663;Laerm;61956;52.540;13.382;2022-12-07T03:15:43;41.45;38.45;51.06;;
73663;Laerm;61956;52.540;13.382;2022-12-07T03:18:22;41.77;38.16;47.99;;
73663;Laerm;61956;52.540;13.382;2022-12-07T03:20:58;41.71;38.41;48.35;;
73663;Laerm;61956;52.540;13.382;2022-12-07T03:23:34;41.70;39.19;44.30;;
73663;Laerm;61956;52.540;13.382;2022-12-07T03:26:11;44.33;39.03;57.35;;
73663;Laerm;61956;52.540;13.382;2022-12-07T03:28:47;42.34;38.60;48.80;;
73663;Laerm;61956;52.540;13.382;2022-12-07T03:31:22;42.80;38.90;51.04;;
73663;Laerm;61956;52.540;13.382;2022-12-07T03:34:01;42.56;38.30;49.53;;
73663;Laerm;61956;52.540;13.382;2022-12-07T03:36:40;41.97;38.99;51.83;;
73663;Laerm;61956;52.540;13.382;2022-12-07T03:39:20;43.16;39.18;52.22;;
73663;Laerm;61956;52.540;13.382;2022-12-07T03:41:52;42.55;39.40;49.63;;
73663;Laerm;61956;52.540;13.382;2022-12-07T03:44:22;44.06;40.32;50.99;;
73663;Laerm;61956;52.540;13.382;2022-12-07T03:47:01;42.73;38.75;52.02;;
73663;Laerm;61956;52.540;13.382;2022-12-07T03:49:42;42.23;39.41;46.55;;
73663;Laerm;61956;52.540;13.382;2022-12-07T03:52:23;44.31;40.22;51.84;;
73663;Laerm;61956;52.540;13.382;2022-12-07T03:55:00;44.00;39.97;48.53;;
73663;Laerm;61956;52.540;13.382;2022-12-07T03:57:34;46.58;40.69;53.42;;
73663;Laerm;61956;52.540;13.382;2022-12-07T04:00:08;46.56;43.52;50.99;;
73663;Laerm;61956;52.540;13.382;2022-12-07T04:02:41;46.35;42.55;59.31;;
73663;Laerm;61956;52.540;13.382;2022-12-07T04:05:14;45.57;41.47;56.02;;
73663;Laerm;61956;52.540;13.382;2022-12-07T04:07:43;45.68;41.58;58.85;;
73663;Laerm;61956;52.540;13.382;2022-12-07T04:10:12;44.16;41.04;56.20;;
73663;Laerm;61956;52.540;13.382;2022-12-07T04:12:42;45.90;40.91;57.81;;
73663;Laerm;61956;52.540;13.382;2022-12-07T04:15:11;45.07;41.89;57.71;;
73663;Laerm;61956;52.540;13.382;2022-12-07T04:17:40;45.36;42.08;56.66;;
73663;Laerm;61956;52.540;13.382;2022-12-07T04:20:14;45.39;41.75;59.20;;
73663;Laerm;61956;52.540;13.382;2022-12-07T04:22:43;44.43;40.55;57.47;;
73663;Laerm;61956;52.540;13.382;2022-12-07T04:25:12;45.20;41.23;59.12;;
73663;Laerm;61956;52.540;13.382;2022-12-07T04:27:41;44.99;40.89;61.93;;
73663;Laerm;61956;52.540;13.382;2022-12-07T04:30:11;45.59;42.30;60.39;;
73663;Laerm;61956;52.540;13.382;2022-12-07T04:32:40;47.21;42.90;57.61;;
73663;Laerm;61956;52.540;13.382;2022-12-07T04:35:09;46.87;42.57;58.46;;
73663;Laerm;61956;52.540;13.382;2022-12-07T04:37:41;46.20;43.01;60.32;;
73663;Laerm;61956;52.540;13.382;2022-12-07T04:40:11;46.65;42.12;58.13;;
73663;Laerm;61956;52.540;13.382;2022-12-07T04:42:40;46.53;42.06;60.69;;
73663;Laerm;61956;52.540;13.382;2022-12-07T04:45:10;46.68;42.27;58.57;;
73663;Laerm;61956;52.540;13.382;2022-12-07T04:47:39;45.74;42.20;55.86;;
73663;Laerm;61956;52.540;13.382;2022-12-07T04:50:10;45.04;41.38;56.95;;
73663;Laerm;61956;52.540;13.382;2022-12-07T04:52:42;46.34;42.04;61.83;;
73663;Laerm;61956;52.540;13.382;2022-12-07T04:55:11;46.33;42.71;60.68;;
73663;Laerm;61956;52.540;13.382;2022-12-07T04:57:40;46.53;42.17;63.06;;
73663;Laerm;61956;52.540;13.382;2022-12-07T05:00:12;47.49;42.83;58.65;;
73663;Laerm;61956;52.540;13.382;2022-12-07T05:02:41;45.58;42.26;64.29;;
73663;Laerm;61956;52.540;13.382;2022-12-07T05:05:10;46.21;42.78;61.82;;
73663;Laerm;61956;52.540;13.382;2022-12-07T05:07:42;46.24;43.25;55.63;;
73663;Laerm;61956;52.540;13.382;2022-12-07T05:10:11;46.94;43.36;59.75;;
73663;Laerm;61956;52.540;13.382;2022-12-07T05:12:40;48.58;43.88;63.42;;
73663;Laerm;61956;52.540;13.382;2022-12-07T05:15:10;47.47;43.18;56.37;;
73663;Laerm;61956;52.540;13.382;2022-12-07T05:17:39;47.75;43.56;56.49;;
73663;Laerm;61956;52.540;13.382;2022-12-07T05:20:09;47.05;43.40;53.09;;
73663;Laerm;61956;52.540;13.382;2022-12-07T05:22:41;46.94;43.25;55.65;;
73663;Laerm;61956;52.540;13.382;2022-12-07T05:25:10;47.87;42.99;56.59;;
73663;Laerm;61956;52.540;13.382;2022-12-07T05:27:39;47.35;44.01;54.91;;
73663;Laerm;61956;52.540;13.382;2022-12-07T05:30:10;47.06;43.11;56.53;;
73663;Laerm;61956;52.540;13.382;2022-12-07T05:32:39;47.26;42.95;59.56;;
73663;Laerm;61956;52.540;13.382;2022-12-07T05:35:09;47.40;42.95;56.27;;
73663;Laerm;61956;52.540;13.382;2022-12-07T05:37:41;47.34;43.92;60.46;;
73663;Laerm;61956;52.540;13.382;2022-12-07T05:40:12;47.40;42.82;57.88;;
73663;Laerm;61956;52.540;13.382;2022-12-07T05:42:42;47.49;44.07;60.60;;
73663;Laerm;61956;52.540;13.382;2022-12-07T05:45:11;47.47;43.70;60.14;;
73663;Laerm;61956;52.540;13.382;2022-12-07T05:47:40;48.05;44.07;56.94;;
73663;Laerm;61956;52.540;13.382;2022-12-07T05:50:10;48.03;44.09;62.88;;
73663;Laerm;61956;52.540;13.382;2022-12-07T05:52:41;47.40;43.71;51.93;;
73663;Laerm;61956;52.540;13.382;2022-12-07T05:55:11;47.72;44.92;51.93;;
73663;Laerm;61956;52.540;13.382;2022-12-07T05:57:40;47.44;44.18;60.96;;
73663;Laerm;61956;52.540;13.382;2022-12-07T06:00:29;48.14;44.18;54.08;;
73663;Laerm;61956;52.540;13.382;2022-12-07T06:02:56;48.94;44.74;54.75;;
73663;Laerm;61956;52.540;13.382;2022-12-07T06:05:25;47.63;44.02;54.92;;
73663;Laerm;61956;52.540;13.382;2022-12-07T06:07:57;47.54;44.06;53.48;;
73663;Laerm;61956;52.540;13.382;2022-12-07T06:10:26;48.71;45.00;54.90;;
73663;Laerm;61956;52.540;13.382;2022-12-07T06:12:55;50.69;46.15;55.89;;
73663;Laerm;61956;52.540;13.382;2022-12-07T06:15:22;48.29;44.14;62.23;;
73663;Laerm;61956;52.540;13.382;2022-12-07T06:17:51;49.21;45.22;63.77;;
73663;Laerm;61956;52.540;13.382;2022-12-07T06:20:20;51.01;47.09;61.27;;
73663;Laerm;61956;52.540;13.382;2022-12-07T06:22:49;50.54;47.50;60.19;;
73663;Laerm;61956;52.540;13.382;2022-12-07T06:25:21;50.90;48.02;62.42;;
73663;Laerm;61956;52.540;13.382;2022-12-07T06:27:50;52.73;48.04;65.55;;
73663;Laerm;61956;52.540;13.382;2022-12-07T06:30:21;52.12;48.08;64.04;;
73663;Laerm;61956;52.540;13.382;2022-12-07T06:32:50;51.18;47.71;66.18;;
73663;Laerm;61956;52.540;13.382;2022-12-07T06:35:19;50.65;47.19;64.45;;
73663;Laerm;61956;52.540;13.382;2022-12-07T06:37:48;50.94;46.59;67.74;;
73663;Laerm;61956;52.540;13.382;2022-12-07T06:40:17;50.95;46.81;60.86;;
73663;Laerm;61956;52.540;13.382;2022-12-07T06:42:49;50.28;46.62;59.37;;
73663;Laerm;61956;52.540;13.382;2022-12-07T06:45:18;53.52;46.35;76.07;;
73663;Laerm;61956;52.540;13.382;2022-12-07T06:47:48;50.31;46.23;60.24;;
73663;Laerm;61956;52.540;13.382;2022-12-07T06:50:17;51.79;47.52;61.31;;
73663;Laerm;61956;52.540;13.382;2022-12-07T06:52:46;50.68;46.95;58.51;;
73663;Laerm;61956;52.540;13.382;2022-12-07T06:55:16;50.70;47.00;61.16;;
73663;Laerm;61956;52.540;13.382;2022-12-07T06:57:45;51.01;46.29;63.98;;
73663;Laerm;61956;52.540;13.382;2022-12-07T07:00:18;50.90;45.22;63.19;;
73663;Laerm;61956;52.540;13.382;2022-12-07T07:02:48;50.68;46.42;60.82;;
73663;Laerm;61956;52.540;13.382;2022-12-07T07:05:17;50.01;46.66;60.12;;
73663;Laerm;61956;52.540;13.382;2022-12-07T07:07:48;51.35;46.26;65.85;;
73663;Laerm;61956;52.540;13.382;2022-12-07T07:10:17;50.36;46.89;60.96;;
73663;Laerm;61956;52.540;13.382;2022-12-07T07:12:46;50.99;47.45;61.06;;
73663;Laerm;61956;52.540;13.382;2022-12-07T07:15:18;51.32;47.46;60.29;;
73663;Laerm;61956;52.540;13.382;2022-12-07T07:17:48;50.92;47.28;59.15;;
73663;Laerm;61956;52.540;13.382;2022-12-07T07:20:17;50.48;46.24;64.63;;
73663;Laerm;61956;52.540;13.382;2022-12-07T07:22:46;50.76;46.95;60.83;;
73663;Laerm;61956;52.540;13.382;2022-12-07T07:25:16;51.56;47.27;62.41;;
73663;Laerm;61956;52.540;13.382;2022-12-07T07:27:45;51.06;47.08;61.18;;
73663;Laerm;61956;52.540;13.382;2022-12-07T07:30:17;50.53;46.86;58.60;;
73663;Laerm;61956;52.540;13.382;2022-12-07T07:32:47;50.84;47.07;63.90;;
73663;Laerm;61956;52.540;13.382;2022-12-07T07:35:16;49.88;45.92;59.06;;
73663;Laerm;61956;52.540;13.382;2022-12-07T07:37:46;51.15;46.60;61.04;;
73663;Laerm;61956;52.540;13.382;2022-12-07T07:40:15;50.38;46.18;65.62;;
73663;Laerm;61956;52.540;13.382;2022-12-07T07:42:47;50.71;47.03;56.28;;
73663;Laerm;61956;52.540;13.382;2022-12-07T07:45:21;51.06;46.48;62.17;;
73663;Laerm;61956;52.540;13.382;2022-12-07T07:47:51;50.71;46.61;61.19;;
73663;Laerm;61956;52.540;13.382;2022-12-07T07:50:21;52.25;46.14;66.17;;
73663;Laerm;61956;52.540;13.382;2022-12-07T07:52:51;51.16;47.24;59.48;;
73663;Laerm;61956;52.540;13.382;2022-12-07T07:55:20;50.15;45.75;58.58;;
73663;Laerm;61956;52.540;13.382;2022-12-07T07:57:50;51.61;46.95;59.18;;
73663;Laerm;61956;52.540;13.382;2022-12-07T08:00:22;49.74;45.91;57.13;;
73663;Laerm;61956;52.540;13.382;2022-12-07T08:02:52;50.50;46.04;56.36;;
73663;Laerm;61956;52.540;13.382;2022-12-07T08:05:21;53.41;47.79;71.85;;
73663;Laerm;61956;52.540;13.382;2022-12-07T08:07:50;51.37;45.80;60.00;;
73663;Laerm;61956;52.540;13.382;2022-12-07T08:10:20;52.42;47.44;70.76;;
73663;Laerm;61956;52.540;13.382;2022-12-07T08:12:49;51.94;47.58;57.82;;
73663;Laerm;61956;52.540;13.382;2022-12-07T08:18:02;51.63;47.07;56.55;;
73663;Laerm;61956;52.540;13.382;2022-12-07T08:20:33;52.34;48.16;57.83;;
73663;Laerm;61956;52.540;13.382;2022-12-07T08:23:06;51.34;46.88;56.64;;
73663;Laerm;61956;52.540;13.382;2022-12-07T08:25:36;51.52;47.43;61.59;;
73663;Laerm;61956;52.540;13.382;2022-12-07T08:28:06;50.72;47.51;57.37;;
73663;Laerm;61956;52.540;13.382;2022-12-07T08:30:38;51.35;47.30;57.39;;
73663;Laerm;61956;52.540;13.382;2022-12-07T08:33:08;50.51;45.87;62.60;;
73663;Laerm;61956;52.540;13.382;2022-12-07T08:35:38;51.56;47.78;57.76;;
73663;Laerm;61956;52.540;13.382;2022-12-07T08:38:07;52.11;47.20;69.38;;
73663;Laerm;61956;52.540;13.382;2022-12-07T08:40:36;50.91;47.10;57.75;;
73663;Laerm;61956;52.540;13.382;2022-12-07T08:43:05;52.62;47.47;71.30;;
73663;Laerm;61956;52.540;13.382;2022-12-07T08:45:34;52.23;47.00;67.89;;
73663;Laerm;61956;52.540;13.382;2022-12-07T08:48:10;50.22;46.00;56.24;;
73663;Laerm;61956;52.540;13.382;2022-12-07T08:50:43;49.94;46.23;57.66;;
73663;Laerm;61956;52.540;13.382;2022-12-07T08:53:13;50.61;46.08;58.91;;
73663;Laerm;61956;52.540;13.382;2022-12-07T08:55:43;50.62;46.85;59.71;;
73663;Laerm;61956;52.540;13.382;2022-12-07T08:58:14;51.26;46.26;59.53;;
73663;Laerm;61956;52.540;13.382;2022-12-07T09:00:43;51.54;47.68;65.89;;
73663;Laerm;61956;52.540;13.382;2022-12-07T09:03:15;52.86;47.32;61.61;;
73663;Laerm;61956;52.540;13.382;2022-12-07T09:05:44;50.07;46.80;54.54;;
73663;Laerm;61956;52.540;13.382;2022-12-07T09:08:14;50.23;46.17;56.76;;
73663;Laerm;61956;52.540;13.382;2022-12-07T09:10:43;50.95;47.45;56.70;;
73663;Laerm;61956;52.540;13.382;2022-12-07T09:13:14;49.51;46.37;53.87;;
73663;Laerm;61956;52.540;13.382;2022-12-07T09:15:43;51.38;46.48;62.10;;
73663;Laerm;61956;52.540;13.382;2022-12-07T09:18:15;52.52;47.53;67.66;;
73663;Laerm;61956;52.540;13.382;2022-12-07T09:20:44;51.62;47.34;57.56;;
73663;Laerm;61956;52.540;13.382;2022-12-07T09:23:13;50.77;46.46;59.43;;
73663;Laerm;61956;52.540;13.382;2022-12-07T09:25:43;53.13;48.64;65.32;;
73663;Laerm;61956;52.540;13.382;2022-12-07T09:28:12;50.42;45.92;55.84;;
73663;Laerm;61956;52.540;13.382;2022-12-07T09:30:46;49.76;45.81;61.10;;
73663;Laerm;61956;52.540;13.382;2022-12-07T09:33:18;50.60;46.94;59.81;;
73663;Laerm;61956;52.540;13.382;2022-12-07T09:35:49;50.67;46.90;56.05;;
73663;Laerm;61956;52.540;13.382;2022-12-07T09:38:20;50.73;46.67;56.45;;
73663;Laerm;61956;52.540;13.382;2022-12-07T09:40:50;51.12;47.61;60.78;;
73663;Laerm;61956;52.540;13.382;2022-12-07T09:43:22;50.84;46.87;56.34;;
73663;Laerm;61956;52.540;13.382;2022-12-07T09:45:55;52.06;48.33;58.59;;
73663;Laerm;61956;52.540;13.382;2022-12-07T09:48:32;51.94;47.90;56.43;;
73663;Laerm;61956;52.540;13.382;2022-12-07T09:53:42;55.70;47.70;67.43;;
73663;Laerm;61956;52.540;13.382;2022-12-07T09:56:13;50.69;46.70;54.65;;
73663;Laerm;61956;52.540;13.382;2022-12-07T09:58:45;51.76;47.20;61.87;;
73663;Laerm;61956;52.540;13.382;2022-12-07T10:01:17;51.51;47.72;58.20;;
73663;Laerm;61956;52.540;13.382;2022-12-07T10:03:53;51.36;47.32;64.11;;
73663;Laerm;61956;52.540;13.382;2022-12-07T10:06:23;53.43;47.13;63.28;;
73663;Laerm;61956;52.540;13.382;2022-12-07T10:08:53;50.40;45.85;56.52;;
73663;Laerm;61956;52.540;13.382;2022-12-07T10:11:22;51.76;47.07;58.42;;
73663;Laerm;61956;52.540;13.382;2022-12-07T10:13:52;50.26;46.56;58.98;;
73663;Laerm;61956;52.540;13.382;2022-12-07T10:16:41;50.46;46.22;57.51;;
73663;Laerm;61956;52.540;13.382;2022-12-07T10:19:29;51.37;47.43;62.72;;
73663;Laerm;61956;52.540;13.382;2022-12-07T10:22:09;51.20;47.45;58.28;;
73663;Laerm;61956;52.540;13.382;2022-12-07T10:24:41;51.80;47.31;65.58;;
73663;Laerm;61956;52.540;13.382;2022-12-07T10:27:30;51.69;46.81;63.19;;
73663;Laerm;61956;52.540;13.382;2022-12-07T10:30:01;52.37;45.95;66.73;;
73663;Laerm;61956;52.540;13.382;2022-12-07T10:32:36;50.32;46.11;61.20;;
73663;Laerm;61956;52.540;13.382;2022-12-07T10:35:25;49.75;46.22;62.86;;
73663;Laerm;61956;52.540;13.382;2022-12-07T10:37:57;50.07;45.71;54.57;;
73663;Laerm;61956;52.540;13.382;2022-12-07T10:40:32;50.85;46.66;60.42;;
73663;Laerm;61956;52.540;13.382;2022-12-07T10:43:05;50.76;46.57;55.51;;
73663;Laerm;61956;52.540;13.382;2022-12-07T10:45:42;49.83;45.18;56.07;;
73663;Laerm;61956;52.540;13.382;2022-12-07T10:48:32;50.28;46.09;58.92;;
73663;Laerm;61956;52.540;13.382;2022-12-07T10:51:16;50.90;46.87;58.15;;
73663;Laerm;61956;52.540;13.382;2022-12-07T10:54:04;50.59;46.47;62.35;;
73663;Laerm;61956;52.540;13.382;2022-12-07T10:57:16;50.73;46.76;59.00;;
73663;Laerm;61956;52.540;13.382;2022-12-07T11:00:04;50.97;45.95;59.59;;
73663;Laerm;61956;52.540;13.382;2022-12-07T11:03:11;51.76;47.10;57.39;;
73663;Laerm;61956;52.540;13.382;2022-12-07T11:05:54;50.93;46.74;55.67;;
73663;Laerm;61956;52.540;13.382;2022-12-07T11:08:47;49.67;46.58;54.34;;
73663;Laerm;61956;52.540;13.382;2022-12-07T11:11:32;49.59;46.02;53.61;;
73663;Laerm;61956;52.540;13.382;2022-12-07T11:14:14;51.47;47.37;61.47;;
73663;Laerm;61956;52.540;13.382;2022-12-07T11:16:56;51.28;47.50;60.14;;
73663;Laerm;61956;52.540;13.382;2022-12-07T11:19:50;50.89;46.92;58.39;;
73663;Laerm;61956;52.540;13.382;2022-12-07T11:22:36;51.30;47.61;56.16;;
73663;Laerm;61956;52.540;13.382;2022-12-07T11:25:25;50.90;46.55;63.16;;
73663;Laerm;61956;52.540;13.382;2022-12-07T11:28:18;51.31;46.10;62.03;;
73663;Laerm;61956;52.540;13.382;2022-12-07T11:30:59;51.51;47.20;61.68;;
73663;Laerm;61956;52.540;13.382;2022-12-07T11:33:39;51.04;45.85;71.11;;
73663;Laerm;61956;52.540;13.382;2022-12-07T11:36:33;51.17;47.28;63.47;;
73663;Laerm;61956;52.540;13.382;2022-12-07T11:39:25;50.65;46.08;69.11;;
73663;Laerm;61956;52.540;13.382;2022-12-07T11:42:13;50.46;46.57;61.29;;
73663;Laerm;61956;52.540;13.382;2022-12-07T11:44:51;50.76;46.05;61.60;;
73663;Laerm;61956;52.540;13.382;2022-12-07T11:47:34;50.88;46.25;63.22;;
73663;Laerm;61956;52.540;13.382;2022-12-07T11:52:56;49.05;45.60;56.98;;
73663;Laerm;61956;52.540;13.382;2022-12-07T11:55:37;52.54;47.29;59.44;;
73663;Laerm;61956;52.540;13.382;2022-12-07T11:58:30;50.39;45.75;58.94;;
73663;Laerm;61956;52.540;13.382;2022-12-07T12:01:15;50.00;45.72;59.78;;
73663;Laerm;61956;52.540;13.382;2022-12-07T12:03:52;50.45;46.94;65.16;;
73663;Laerm;61956;52.540;13.382;2022-12-07T12:06:23;51.16;46.55;67.70;;
73663;Laerm;61956;52.540;13.382;2022-12-07T12:08:58;49.84;45.73;56.97;;
73663;Laerm;61956;52.540;13.382;2022-12-07T12:11:50;50.71;46.33;60.54;;
73663;Laerm;61956;52.540;13.382;2022-12-07T12:14:51;50.75;46.66;60.46;;
73663;Laerm;61956;52.540;13.382;2022-12-07T12:18:03;49.57;45.83;58.46;;
73663;Laerm;61956;52.540;13.382;2022-12-07T12:20:40;53.11;46.49;66.16;;
73663;Laerm;61956;52.540;13.382;2022-12-07T12:23:17;50.84;46.37;59.95;;
73663;Laerm;61956;52.540;13.382;2022-12-07T12:25:50;50.30;46.66;55.84;;
73663;Laerm;61956;52.540;13.382;2022-12-07T12:28:29;52.02;46.33;64.94;;
73663;Laerm;61956;52.540;13.382;2022-12-07T12:31:13;50.26;46.43;57.29;;
73663;Laerm;61956;52.540;13.382;2022-12-07T12:33:46;50.40;46.01;58.35;;
73663;Laerm;61956;52.540;13.382;2022-12-07T12:36:24;49.89;45.73;55.58;;
73663;Laerm;61956;52.540;13.382;2022-12-07T12:39:18;49.91;45.69;55.96;;
73663;Laerm;61956;52.540;13.382;2022-12-07T12:42:00;50.62;46.55;57.30;;
73663;Laerm;61956;52.540;13.382;2022-12-07T12:45:17;50.23;45.50;57.25;;
73663;Laerm;61956;52.540;13.382;2022-12-07T12:47:58;50.07;46.15;62.54;;
73663;Laerm;61956;52.540;13.382;2022-12-07T12:50:31;49.32;45.68;53.23;;
73663;Laerm;61956;52.540;13.382;2022-12-07T12:53:23;50.04;46.72;55.67;;
73663;Laerm;61956;52.540;13.382;2022-12-07T12:56:32;50.90;45.94;60.25;;
73663;Laerm;61956;52.540;13.382;2022-12-07T12:59:25;49.82;46.58;57.64;;
73663;Laerm;61956;52.540;13.382;2022-12-07T13:02:09;50.38;46.77;67.10;;
73663;Laerm;61956;52.540;13.382;2022-12-07T13:04:57;50.59;46.08;64.12;;
73663;Laerm;61956;52.540;13.382;2022-12-07T13:07:54;51.60;46.84;59.72;;
73663;Laerm;61956;52.540;13.382;2022-12-07T13:10:42;50.45;46.01;60.04;;
73663;Laerm;61956;52.540;13.382;2022-12-07T13:13:33;50.29;45.76;57.97;;
73663;Laerm;61956;52.540;13.382;2022-12-07T13:16:37;50.53;46.81;57.38;;
73663;Laerm;61956;52.540;13.382;2022-12-07T13:22:48;50.19;45.99;57.13;;
73663;Laerm;61956;52.540;13.382;2022-12-07T13:28:09;49.67;46.49;55.15;;
73663;Laerm;61956;52.540;13.382;2022-12-07T13:30:52;50.48;46.53;58.19;;
73663;Laerm;61956;52.540;13.382;2022-12-07T13:33:23;50.28;46.02;55.44;;
73663;Laerm;61956;52.540;13.382;2022-12-07T13:35:56;49.71;45.67;55.22;;
73663;Laerm;61956;52.540;13.382;2022-12-07T13:38:33;50.44;46.68;55.57;;
73663;Laerm;61956;52.540;13.382;2022-12-07T13:41:14;51.80;47.02;58.26;;
73663;Laerm;61956;52.540;13.382;2022-12-07T13:43:49;51.43;45.93;60.01;;
73663;Laerm;61956;52.540;13.382;2022-12-07T13:46:24;49.86;45.60;55.86;;
73663;Laerm;61956;52.540;13.382;2022-12-07T13:48:55;49.74;44.95;58.33;;
73663;Laerm;61956;52.540;13.382;2022-12-07T13:51:26;51.25;46.87;58.58;;
73663;Laerm;61956;52.540;13.382;2022-12-07T13:54:01;50.37;46.61;58.34;;
73663;Laerm;61956;52.540;13.382;2022-12-07T13:56:37;49.58;45.61;61.08;;
73663;Laerm;61956;52.540;13.382;2022-12-07T13:59:14;51.11;45.87;61.10;;
73663;Laerm;61956;52.540;13.382;2022-12-07T14:01:48;50.88;46.48;57.52;;
73663;Laerm;61956;52.540;13.382;2022-12-07T14:04:34;51.21;47.01;58.92;;
73663;Laerm;61956;52.540;13.382;2022-12-07T14:07:22;50.89;47.70;56.77;;
73663;Laerm;61956;52.540;13.382;2022-12-07T14:10:00;50.67;46.76;56.41;;
73663;Laerm;61956;52.540;13.382;2022-12-07T14:12:36;50.53;46.72;58.28;;
73663;Laerm;61956;52.540;13.382;2022-12-07T14:15:20;51.06;46.55;60.15;;
73663;Laerm;61956;52.540;13.382;2022-12-07T14:17:51;50.87;46.61;57.99;;
73663;Laerm;61956;52.540;13.382;2022-12-07T14:20:32;51.61;46.51;58.47;;
73663;Laerm;61956;52.540;13.382;2022-12-07T14:23:03;50.93;46.75;60.17;;
73663;Laerm;61956;52.540;13.382;2022-12-07T14:26:06;51.34;47.09;61.90;;
73663;Laerm;61956;52.540;13.382;2022-12-07T14:28:37;51.53;47.45;61.00;;
73663;Laerm;61956;52.540;13.382;2022-12-07T14:31:12;51.11;46.36;61.46;;
73663;Laerm;61956;52.540;13.382;2022-12-07T14:33:42;50.35;46.23;58.80;;